createdAt,value
2022-08-22T00:02:46.133Z,97000.53
2022-08-22T00:04:59.709Z,97029.50
2022-08-22T00:10:24.964Z,97026.66
2022-08-22T00:15:44.235Z,97034.94
2022-08-22T00:20:54.094Z,97029.81
2022-08-22T00:26:06.941Z,97030.41
2022-08-22T00:31:47.027Z,97034.63
2022-08-22T00:37:02.281Z,97028.66
2022-08-22T00:42:31.646Z,97034.38
2022-08-22T00:47:53.501Z,97030.41
2022-08-22T00:53:17.449Z,97038.50
2022-08-22T00:58:34.149Z,97027.97
2022-08-22T01:03:48.455Z,97025.72
2022-08-22T01:09:23.250Z,97020.59
2022-08-22T01:14:46.369Z,97027.75
2022-08-22T01:20:24.931Z,97027.75
2022-08-22T01:25:45.363Z,97025.28
2022-08-22T01:31:07.579Z,97028.47
2022-08-22T01:36:43.218Z,97022.75
2022-08-22T01:42:00.073Z,97023.47
2022-08-22T01:47:13.947Z,97026.44
2022-08-22T01:52:29.269Z,97035.72
2022-08-22T01:57:31.061Z,97040.03
2022-08-22T02:02:40.576Z,97034.94
2022-08-22T02:08:00.983Z,97044.94
2022-08-22T02:13:12.378Z,97046.13
2022-08-22T02:18:25.870Z,97035.72
2022-08-22T02:24:00.274Z,97046.56
2022-08-22T02:29:11.878Z,97033.69
2022-08-22T02:34:34.030Z,97040.00
2022-08-22T02:39:39.816Z,97039.78
2022-08-22T02:44:50.737Z,97038.81
2022-08-22T02:50:23.128Z,97032.63
2022-08-22T02:56:08.721Z,97039.81
2022-08-22T03:01:24.883Z,97045.13
2022-08-22T03:06:40.049Z,97042.59
2022-08-22T03:12:03.939Z,97047.00
2022-08-22T03:17:17.721Z,97036.75
2022-08-22T03:22:32.084Z,97037.47
2022-08-22T03:27:40.618Z,97037.97
2022-08-22T03:32:55.812Z,97028.53
2022-08-22T03:38:44.570Z,97025.63
2022-08-22T03:44:08.289Z,97036.94
2022-08-22T03:49:25.407Z,97038.66
2022-08-22T03:55:09.099Z,97045.13
2022-08-22T04:00:36.536Z,97043.31
2022-08-22T04:05:44.310Z,97044.50
2022-08-22T04:11:33.112Z,97053.31
2022-08-22T04:16:49.662Z,97054.94
2022-08-22T04:21:54.375Z,97059.25
2022-08-22T04:27:02.437Z,97058.97
2022-08-22T04:32:25.375Z,97059.06
2022-08-22T04:37:46.333Z,97062.84
2022-08-22T04:43:12.511Z,97064.19
2022-08-22T04:48:27.879Z,97066.94
2022-08-22T04:53:48.040Z,97065.91
2022-08-22T04:58:58.147Z,97071.00
2022-08-22T05:04:05.850Z,97076.56
2022-08-22T05:09:16.215Z,97079.41
2022-08-22T05:14:27.974Z,97081.09
2022-08-22T05:19:34.694Z,97078.69
2022-08-22T05:24:42.328Z,97089.88
2022-08-22T05:29:48.583Z,97088.06
2022-08-22T05:34:54.070Z,97087.00
2022-08-22T05:40:00.124Z,97096.84
2022-08-22T05:45:05.355Z,97095.59
2022-08-22T05:50:10.146Z,97096.81
2022-08-22T05:55:17.739Z,97087.84
2022-08-22T06:00:22.603Z,97095.53
2022-08-22T06:05:28.486Z,97098.84
2022-08-22T06:11:00.107Z,97099.19
2022-08-22T06:16:14.052Z,97104.72
2022-08-22T06:21:32.532Z,97102.03
2022-08-22T06:26:40.042Z,97091.34
2022-08-22T06:31:46.549Z,97094.56
2022-08-22T06:36:51.172Z,97100.88
2022-08-22T06:42:04.752Z,97100.22
2022-08-22T06:47:12.165Z,97106.53
2022-08-22T06:52:23.598Z,97103.53
2022-08-22T06:57:30.177Z,97108.38
2022-08-22T07:02:40.686Z,97105.41
2022-08-22T07:07:42.395Z,97118.88
2022-08-22T07:12:48.097Z,97115.66
2022-08-22T07:17:54.353Z,97113.44
2022-08-22T07:23:00.206Z,97110.41
2022-08-22T07:28:36.571Z,97113.50
2022-08-22T07:33:44.767Z,97117.94
2022-08-22T07:39:29.943Z,97106.59
2022-08-22T07:44:41.394Z,97103.47
2022-08-22T07:49:54.537Z,97105.09
2022-08-22T07:55:22.735Z,97101.66
2022-08-22T08:00:25.449Z,97107.66
2022-08-22T08:05:30.389Z,97111.59
2022-08-22T08:10:37.356Z,97105.34
2022-08-22T08:15:42.867Z,97105.59
2022-08-22T08:20:49.271Z,97106.06
2022-08-22T08:26:07.328Z,97105.16
2022-08-22T08:31:17.987Z,97090.97
2022-08-22T08:36:34.169Z,97095.50
2022-08-22T08:42:01.209Z,97096.34
2022-08-22T08:47:05.770Z,97093.84
2022-08-22T08:52:27.984Z,97095.41
2022-08-22T08:57:46.976Z,97087.91
2022-08-22T09:08:44.417Z,97081.00
2022-08-22T09:13:59.888Z,97080.28
2022-08-22T09:19:19.953Z,97090.97
2022-08-22T09:24:33.809Z,97084.25
2022-08-22T09:29:54.580Z,97084.88
2022-08-22T09:35:23.152Z,97081.97
2022-08-22T09:40:15.326Z,97080.59
2022-08-22T09:40:47.762Z,97082.94
2022-08-22T09:46:06.655Z,97082.94
2022-08-22T09:51:31.921Z,97091.91
2022-08-22T09:56:50.582Z,97086.00
2022-08-22T10:02:07.218Z,97086.56
2022-08-22T10:07:20.531Z,97083.19
2022-08-22T10:13:04.970Z,97082.50
2022-08-22T10:18:18.501Z,97083.97
2022-08-22T10:23:25.688Z,97082.47
2022-08-22T10:28:40.061Z,97088.53
2022-08-22T10:34:04.219Z,97084.66
2022-08-22T10:39:11.848Z,97078.00
2022-08-22T10:44:21.703Z,97084.63
2022-08-22T10:49:35.455Z,97095.16
2022-08-22T10:54:44.893Z,97073.00
2022-08-22T10:59:59.484Z,97089.56
2022-08-22T11:05:37.151Z,97081.38
2022-08-22T11:10:53.771Z,97084.41
2022-08-22T11:16:07.738Z,97073.97
2022-08-22T11:21:27.593Z,97079.25
2022-08-22T11:26:46.985Z,97085.47
2022-08-22T11:32:16.915Z,97088.00
2022-08-22T11:37:46.011Z,97080.41
2022-08-22T11:42:58.031Z,97075.38
2022-08-22T11:48:24.406Z,97064.94
2022-08-22T11:53:39.581Z,97064.66
2022-08-22T11:58:50.557Z,97054.03
2022-08-22T12:04:15.829Z,97052.84
2022-08-22T12:09:25.299Z,97056.72
2022-08-22T12:14:36.027Z,97051.66
2022-08-22T12:20:14.969Z,97035.59
2022-08-22T12:25:45.423Z,97031.09
2022-08-22T12:31:12.747Z,97035.00
2022-08-22T12:36:22.436Z,97023.22
2022-08-22T12:41:57.985Z,97015.50
2022-08-22T12:47:17.315Z,97013.59
2022-08-22T12:52:47.463Z,97004.50
2022-08-22T12:57:58.069Z,97009.84
2022-08-22T13:03:09.589Z,96990.44
2022-08-22T13:08:22.168Z,97010.22
2022-08-22T13:13:43.478Z,96992.81
2022-08-22T13:19:07.368Z,96993.25
2022-08-22T13:24:16.809Z,96994.72
2022-08-22T13:29:39.552Z,96985.09
2022-08-22T13:34:50.819Z,96989.88
2022-08-22T13:39:58.265Z,96984.84
2022-08-22T13:45:12.094Z,96987.09
2022-08-22T13:50:19.211Z,96986.06
2022-08-22T13:55:21.085Z,96979.69
2022-08-22T14:00:58.267Z,96982.75
2022-08-22T14:06:32.535Z,96981.84
2022-08-22T14:11:30.977Z,96979.84
2022-08-22T14:16:38.971Z,96966.06
2022-08-22T14:21:45.366Z,96969.69
2022-08-22T14:27:05.515Z,96975.41
2022-08-22T14:32:35.528Z,96967.50
2022-08-22T14:37:41.811Z,96963.06
2022-08-22T14:43:05.175Z,96977.47
2022-08-22T14:48:29.857Z,96962.69
2022-08-22T14:53:37.103Z,96963.69
2022-08-22T14:58:50.815Z,96959.69
2022-08-22T15:03:59.201Z,96967.38
2022-08-22T15:09:07.955Z,96969.84
2022-08-22T15:14:21.440Z,96979.56
2022-08-22T15:19:43.069Z,96988.56
2022-08-22T15:25:04.951Z,96985.03
2022-08-22T15:30:16.589Z,96984.41
2022-08-22T15:35:32.085Z,96975.94
2022-08-22T15:40:45.725Z,96988.38
2022-08-22T15:45:50.393Z,96986.94
2022-08-22T15:51:02.838Z,96995.16
2022-08-22T15:56:13.891Z,96995.34
2022-08-22T16:01:22.441Z,96993.75
2022-08-22T16:06:46.652Z,96988.19
2022-08-22T16:11:54.893Z,96988.63
2022-08-22T16:17:01.362Z,96988.66
2022-08-22T16:22:06.711Z,96986.91
2022-08-22T16:27:19.172Z,96991.97
2022-08-22T16:32:28.192Z,96985.25
2022-08-22T16:37:35.613Z,96973.56
2022-08-22T16:42:40.669Z,96976.06
2022-08-22T16:47:54.504Z,96977.19
2022-08-22T16:53:10.198Z,96979.97
2022-08-22T16:58:12.091Z,96989.13
2022-08-22T17:03:35.435Z,96983.19
2022-08-22T17:08:57.243Z,96986.56
2022-08-22T17:14:08.507Z,96995.56
2022-08-22T17:19:35.616Z,96996.50
2022-08-22T17:24:59.411Z,96992.97
2022-08-22T17:30:15.528Z,97003.19
2022-08-22T17:35:38.901Z,97002.38
2022-08-22T17:40:57.551Z,97011.94
2022-08-22T17:46:28.601Z,97008.28
2022-08-22T17:51:38.889Z,97009.25
2022-08-22T17:56:47.268Z,97016.63
2022-08-22T18:02:01.291Z,97014.75
2022-08-22T18:07:14.978Z,97015.66
2022-08-22T18:12:28.324Z,97020.16
2022-08-22T18:17:50.764Z,97020.81
2022-08-22T18:22:57.699Z,97034.03
2022-08-22T18:28:11.696Z,97033.91
2022-08-22T18:33:28.153Z,97025.22
2022-08-22T18:38:51.523Z,97041.00
2022-08-22T18:43:53.551Z,97033.47
2022-08-22T18:49:14.478Z,97036.78
2022-08-22T18:54:36.923Z,97043.69
2022-08-22T18:59:56.901Z,97049.91
2022-08-22T19:05:24.578Z,97061.41
2022-08-22T19:10:35.498Z,97069.28
2022-08-22T19:16:05.399Z,97078.75
2022-08-22T19:21:42.128Z,97076.66
2022-08-22T19:26:48.062Z,97081.41
2022-08-22T19:31:52.647Z,97096.50
2022-08-22T19:37:32.209Z,97106.78
2022-08-22T19:42:36.564Z,97097.56
2022-08-22T19:47:42.697Z,97100.19
2022-08-22T19:52:56.648Z,97104.94
2022-08-22T19:58:37.857Z,97103.41
2022-08-22T20:03:59.074Z,97109.31
2022-08-22T20:09:30.484Z,97103.28
2022-08-22T20:14:36.541Z,97118.63
2022-08-22T20:20:16.511Z,97119.16
2022-08-22T20:25:43.107Z,97119.66
2022-08-22T20:30:46.948Z,97125.97
2022-08-22T20:35:59.145Z,97117.00
2022-08-22T20:41:23.694Z,97119.13
2022-08-22T20:46:43.814Z,97107.38
2022-08-22T20:51:54.335Z,97105.06
2022-08-22T20:57:01.359Z,97111.97
2022-08-22T21:02:19.021Z,97098.53
2022-08-22T21:07:41.851Z,97094.84
2022-08-22T21:12:59.855Z,97105.66
2022-08-22T21:18:02.046Z,97100.13
2022-08-22T21:23:08.896Z,97104.25
2022-08-22T21:28:11.243Z,97098.91
2022-08-22T21:33:23.961Z,97098.25
2022-08-22T21:38:27.393Z,97098.09
2022-08-22T21:43:36.973Z,97089.53
2022-08-22T21:48:56.514Z,97095.94
2022-08-22T21:54:33.563Z,97098.38
2022-08-22T21:59:51.417Z,97089.03
2022-08-22T22:05:02.372Z,97094.84
2022-08-22T22:10:06.011Z,97091.88
2022-08-22T22:15:09.429Z,97095.16
2022-08-22T22:20:12.791Z,97096.41
2022-08-22T22:25:38.901Z,97091.09
2022-08-22T22:30:39.552Z,97110.06
2022-08-22T22:35:41.382Z,97106.78
2022-08-22T22:40:43.210Z,97110.72
2022-08-22T22:45:44.977Z,97104.19
2022-08-22T22:50:47.299Z,97115.88
2022-08-22T22:55:59.979Z,97108.56
2022-08-22T23:01:22.295Z,97113.19
2022-08-22T23:06:26.482Z,97123.22
2022-08-22T23:11:30.196Z,97118.88
2022-08-22T23:16:37.023Z,97126.94
2022-08-22T23:21:40.655Z,97108.91
2022-08-22T23:26:42.788Z,97107.94
2022-08-22T23:31:57.022Z,97112.91
2022-08-22T23:37:00.734Z,97115.28
2022-08-22T23:42:02.706Z,97115.97
2022-08-22T23:47:06.511Z,97119.94
2022-08-22T23:52:09.775Z,97119.63
2022-08-22T23:57:12.729Z,97109.13
